Terminal Aerodrome Forecast
Issued by NWS

Home | Current Version | Previous Version | Text Only | Print | Product List | Glossary On
Versions: 1 2 3 4 5 6 7 8 9 10 11 12 13 14 15 16
758
FTUS44 KTSA 232334
TAFMLC
TAF
KMLC 232334Z 2400/2424 18013G29KT P6SM SCT250
     FM240800 24008KT P6SM SCT250
     FM241000 33010KT P6SM SCT250
     FM241500 31012G22KT P6SM SCT250=

USA.gov is the U.S. government's official web portal to all federal, state and local government web resources and services.